Bookmark and Share
Track history (hours):
 

Oceanographic research ship Thalassa (France & Spain)

Detailed information on ship capabilities available from University of Delaware's Ocean Information Center.

Last reported at 2014-Apr-20 07:03 UTC. Time now 2014-Apr-20 09:00 UTC.
Position N 48°19' W 004°39'.

Length 74 m; beam 15 m.

MMSI: 227297000.

NotesDate/timePositionNaut miles runAvg speedWind from/ knotsBaromVisibWave heightAir tempDewpointWater temp
2014-Apr-20 07:03N 48°19' W 004°39'5 9.9
2014-Apr-20 06:33N 48°21' W 004°32'3 0.7
2014-Apr-20 02:33N 48°23' W 004°29'0 0.0
2014-Apr-20 01:32N 48°23' W 004°29'0 0.0
2014-Apr-20 00:32N 48°23' W 004°29'0 0.0
2014-Apr-19 23:31N 48°23' W 004°29'0 0.0
2014-Apr-19 22:31N 48°23' W 004°29'0 0.0
2014-Apr-19 21:33N 48°23' W 004°29'0 0.0
2014-Apr-19 20:33N 48°23' W 004°29'0 0.0
2014-Apr-19 19:32N 48°23' W 004°29'0 0.0
2014-Apr-19 18:32N 48°23' W 004°29'0 0.0
2014-Apr-19 17:32N 48°23' W 004°29'0 0.0
2014-Apr-19 16:31N 48°23' W 004°29'0 0.0
2014-Apr-19 15:31N 48°23' W 004°29'0 0.0
2014-Apr-19 14:33N 48°23' W 004°29'0 0.0
2014-Apr-19 13:33N 48°23' W 004°29'0 0.0
2014-Apr-19 12:29N 48°23' W 004°29'0 0.0
2014-Apr-19 11:32N 48°23' W 004°29'0 0.0
2014-Apr-19 10:32N 48°23' W 004°29'0 0.0
2014-Apr-19 09:31N 48°23' W 004°29'0 0.0
2014-Apr-19 08:31N 48°23' W 004°29'0 0.0
2014-Apr-19 07:33N 48°23' W 004°29'0 0.0
2014-Apr-19 02:22N 48°23' W 004°29'0 0.0
2014-Apr-19 01:31N 48°23' W 004°29'0 0.0
2014-Apr-19 00:33N 48°23' W 004°29'0 0.0
2014-Apr-18 23:33N 48°23' W 004°29'0 0.0
2014-Apr-18 22:32N 48°23' W 004°29'0 0.0
2014-Apr-18 21:32N 48°23' W 004°29'0 0.0
2014-Apr-18 20:32N 48°23' W 004°29'0 0.0
2014-Apr-18 19:31N 48°23' W 004°29'0 0.0
2014-Apr-18 18:31N 48°23' W 004°29'0 0.0
2014-Apr-18 17:33N 48°23' W 004°29'0 0.0
2014-Apr-18 16:30N 48°23' W 004°29'0 0.0
2014-Apr-18 01:05N 48°23' W 004°29'0 0.0
2014-Apr-18 00:32N 48°23' W 004°29'0 0.0
2014-Apr-17 23:31N 48°23' W 004°29'0 0.0
2014-Apr-17 22:31N 48°23' W 004°29'0 0.0
2014-Apr-17 21:31N 48°23' W 004°29'0 0.0
2014-Apr-17 18:05N 48°23' W 004°29'0 0.0
2014-Apr-17 17:32N 48°23' W 004°29'0 0.0
2014-Apr-17 16:31N 48°23' W 004°29'0 0.0
2014-Apr-17 15:31N 48°23' W 004°29'0 0.0
2014-Apr-17 14:34N 48°23' W 004°29'0 0.0
2014-Apr-17 13:33N 48°23' W 004°29'0 0.0
2014-Apr-17 12:33N 48°23' W 004°29'6 5.6
2014-Apr-17 11:32N 48°20' W 004°36'59 4.9
2014-Apr-16 23:34N 47°26' W 004°03'  
2014-Apr-12 22:32N 45°13' W 002°12'4 2.0
2014-Apr-12 20:33N 45°15' W 002°07'2 2.5
2014-Apr-12 19:33N 45°17' W 002°04'3 2.6
2014-Apr-12 18:32N 45°18' W 002°01'  
2014-Apr-10 07:33N 48°13' W 004°43'  

Dump ship's entire track history

sailing weather and tide predictions

Thalassa — FNFP — position and weather